Time;durP1;ratioP1;P1;durP2;ratioP2;P2;SDS_P1;SDS_P2;PMS_P1;PMS_P2;Temp;Humidity;BMP_temperature;BMP_pressure;BME280_temperature;BME280_humidity;BME280_pressure;Samples;Min_cycle;Max_cycle;Signal;HPM_P1;HPM_P2
2021/11/15 00:01:24;;;;;;;89.63;38.45;;;;;;;;;;5043949;28;20052;-73
2021/11/15 00:03:50;;;;;;;92.22;39.75;;;;;;;;;;5045279;28;20087;-73
2021/11/15 00:06:16;;;;;;;92.32;39.08;;;;;;;;;;5044701;28;20167;-73
2021/11/15 00:08:42;;;;;;;96.53;39.08;;;;;;;;;;5045998;28;20041;-72
2021/11/15 00:11:08;;;;;;;91.40;38.38;;;;;;;;;;5055689;28;20072;-73
2021/11/15 00:13:34;;;;;;;104.15;40.95;;;;;;;;;;5047496;28;20049;-74
2021/11/15 00:16:01;;;;;;;100.28;41.38;;;;;;;;;;5040411;28;20492;-73
2021/11/15 00:18:27;;;;;;;88.25;36.78;;;;;;;;;;5044194;28;20090;-73
2021/11/15 00:20:53;;;;;;;104.47;41.60;;;;;;;;;;5050464;28;20037;-73
2021/11/15 00:23:20;;;;;;;99.38;39.85;;;;;;;;;;5046916;28;20556;-73
2021/11/15 00:25:46;;;;;;;97.57;38.63;;;;;;;;;;5046540;28;20037;-73
2021/11/15 00:28:12;;;;;;;104.85;40.15;;;;;;;;;;5046632;28;20095;-73
2021/11/15 00:30:38;;;;;;;91.70;37.15;;;;;;;;;;5040957;28;20045;-73
2021/11/15 00:33:04;;;;;;;106.82;40.15;;;;;;;;;;5047872;28;20033;-73
2021/11/15 00:35:30;;;;;;;92.82;37.58;;;;;;;;;;5048720;28;20055;-73
2021/11/15 00:37:56;;;;;;;93.95;38.88;;;;;;;;;;5049143;28;20092;-73
2021/11/15 00:40:22;;;;;;;95.82;38.20;;;;;;;;;;5045437;28;20041;-73
2021/11/15 00:42:49;;;;;;;95.65;38.63;;;;;;;;;;5049401;28;20487;-72
2021/11/15 00:45:16;;;;;;;89.70;37.88;;;;;;;;;;5044517;28;20380;-73
2021/11/15 00:47:42;;;;;;;101.22;39.80;;;;;;;;;;5047787;28;20434;-72
2021/11/15 00:50:09;;;;;;;100.43;40.03;;;;;;;;;;5048037;28;20375;-72
2021/11/15 00:52:35;;;;;;;99.05;40.50;;;;;;;;;;5043963;28;20424;-73
2021/11/15 00:55:01;;;;;;;99.72;39.03;;;;;;;;;;5048018;28;20132;-73
2021/11/15 00:57:27;;;;;;;98.82;38.92;;;;;;;;;;5047548;28;20095;-73
2021/11/15 00:59:53;;;;;;;101.72;38.65;;;;;;;;;;5046454;28;20033;-73
2021/11/15 01:02:21;;;;;;;96.75;39.30;;;;;;;;;;5047672;28;20119;-72
2021/11/15 01:04:47;;;;;;;87.13;39.88;;;;;;;;;;5043823;28;20044;-72
2021/11/15 01:07:13;;;;;;;87.03;37.95;;;;;;;;;;5045797;28;20068;-73
2021/11/15 01:09:39;;;;;;;85.47;37.40;;;;;;;;;;5045345;28;20061;-72
2021/11/15 01:12:05;;;;;;;90.88;38.50;;;;;;;;;;5042673;28;20116;-73
2021/11/15 01:14:32;;;;;;;89.90;36.22;;;;;;;;;;5038402;28;20073;-73
2021/11/15 01:16:58;;;;;;;95.50;38.85;;;;;;;;;;5034126;28;20033;-73
2021/11/15 01:19:24;;;;;;;94.15;38.42;;;;;;;;;;5047730;28;20068;-73
2021/11/15 01:21:50;;;;;;;91.40;36.72;;;;;;;;;;5050262;28;20246;-73
2021/11/15 01:24:17;;;;;;;91.22;37.78;;;;;;;;;;5045486;28;20037;-73
2021/11/15 01:26:43;;;;;;;90.47;37.67;;;;;;;;;;5048777;28;20107;-73
2021/11/15 01:29:10;;;;;;;102.20;38.75;;;;;;;;;;5051263;28;20106;-73
2021/11/15 01:31:38;;;;;;;84.80;36.67;;;;;;;;;;5051015;28;20045;-72
2021/11/15 01:34:04;;;;;;;80.50;35.13;;;;;;;;;;5049381;28;20055;-73
2021/11/15 01:36:30;;;;;;;84.60;36.55;;;;;;;;;;5052056;28;20049;-72
2021/11/15 01:38:57;;;;;;;81.13;35.03;;;;;;;;;;5050385;28;20068;-73
2021/11/15 01:41:23;;;;;;;88.70;34.75;;;;;;;;;;5051145;28;20083;-73
2021/11/15 01:43:49;;;;;;;75.07;34.03;;;;;;;;;;5051390;28;20147;-72
2021/11/15 01:46:15;;;;;;;77.85;34.95;;;;;;;;;;5051272;28;20475;-72
2021/11/15 01:48:41;;;;;;;76.20;34.10;;;;;;;;;;5052356;28;20043;-72
2021/11/15 01:51:07;;;;;;;79.07;32.60;;;;;;;;;;5052795;28;20039;-72
2021/11/15 01:53:33;;;;;;;75.00;35.05;;;;;;;;;;5049453;28;20090;-72
2021/11/15 01:56:00;;;;;;;75.10;33.03;;;;;;;;;;5052443;28;20148;-73
2021/11/15 01:58:26;;;;;;;69.45;31.70;;;;;;;;;;5048935;28;20092;-73
2021/11/15 02:00:57;;;;;;;73.30;32.50;;;;;;;;;;5049406;28;20136;-72
2021/11/15 02:03:23;;;;;;;71.82;31.65;;;;;;;;;;5047102;28;20068;-73
2021/11/15 02:05:50;;;;;;;64.60;30.55;;;;;;;;;;5051360;28;20036;-72
2021/11/15 02:08:16;;;;;;;68.70;30.73;;;;;;;;;;5048717;28;20134;-72
2021/11/15 02:10:43;;;;;;;70.95;31.67;;;;;;;;;;5050651;28;20175;-72
2021/11/15 02:13:09;;;;;;;67.95;31.27;;;;;;;;;;5049653;28;20453;-73
2021/11/15 02:15:36;;;;;;;74.22;31.63;;;;;;;;;;5047910;28;20079;-73
2021/11/15 02:18:02;;;;;;;76.47;31.48;;;;;;;;;;5049310;28;20098;-73
2021/11/15 02:20:42;;;;;;;71.03;31.42;;;;;;;;;;5051316;28;20041;-73
2021/11/15 02:23:08;;;;;;;71.43;31.73;;;;;;;;;;5050720;28;20033;-73
2021/11/15 02:25:34;;;;;;;72.28;31.15;;;;;;;;;;5049258;28;20385;-73
2021/11/15 02:28:00;;;;;;;76.13;31.40;;;;;;;;;;5050364;28;20045;-72
2021/11/15 02:30:28;;;;;;;72.15;30.92;;;;;;;;;;5045436;28;20037;-73
2021/11/15 02:32:55;;;;;;;78.15;32.28;;;;;;;;;;5049260;28;20045;-73
2021/11/15 02:35:21;;;;;;;77.13;31.95;;;;;;;;;;5048618;28;20041;-73
2021/11/15 02:37:48;;;;;;;80.32;34.45;;;;;;;;;;5049025;28;20036;-72
2021/11/15 02:40:16;;;;;;;84.57;35.70;;;;;;;;;;5047957;28;21623;-72
2021/11/15 02:42:42;;;;;;;82.00;33.72;;;;;;;;;;5049024;28;20037;-72
2021/11/15 02:45:09;;;;;;;83.53;33.17;;;;;;;;;;5048123;28;20041;-72
2021/11/15 02:47:35;;;;;;;82.85;33.78;;;;;;;;;;5048006;28;20136;-73
2021/11/15 02:50:01;;;;;;;76.88;31.10;;;;;;;;;;5050304;28;20045;-73
2021/11/15 02:52:27;;;;;;;77.82;34.58;;;;;;;;;;5049633;28;20106;-72
2021/11/15 02:54:57;;;;;;;81.13;32.00;;;;;;;;;;5047256;28;20044;-72
2021/11/15 02:57:24;;;;;;;81.82;33.50;;;;;;;;;;5046202;28;20078;-73
2021/11/15 02:59:50;;;;;;;89.47;34.10;;;;;;;;;;5047382;28;20037;-72
2021/11/15 03:02:16;;;;;;;85.25;33.53;;;;;;;;;;5047502;28;20115;-73
2021/11/15 03:04:44;;;;;;;75.78;30.92;;;;;;;;;;5048193;28;20076;-72
2021/11/15 03:07:11;;;;;;;81.75;32.47;;;;;;;;;;5049799;28;20037;-73
2021/11/15 03:09:39;;;;;;;79.47;31.80;;;;;;;;;;5050649;28;20049;-73
2021/11/15 03:12:06;;;;;;;79.63;30.77;;;;;;;;;;5049323;28;20044;-72
2021/11/15 03:14:32;;;;;;;84.50;32.60;;;;;;;;;;5049077;28;20044;-73
2021/11/15 03:16:58;;;;;;;79.78;31.15;;;;;;;;;;5048833;28;20484;-74
2021/11/15 03:19:24;;;;;;;79.15;31.10;;;;;;;;;;5041993;28;20044;-73
2021/11/15 03:21:50;;;;;;;82.47;31.52;;;;;;;;;;5050414;28;20068;-72
2021/11/15 03:24:16;;;;;;;74.00;29.05;;;;;;;;;;5048810;28;20159;-72
2021/11/15 03:26:42;;;;;;;75.35;30.23;;;;;;;;;;5050213;28;20070;-73
2021/11/15 03:29:09;;;;;;;82.68;31.48;;;;;;;;;;5048793;28;20037;-72
2021/11/15 03:31:36;;;;;;;81.07;29.73;;;;;;;;;;5028615;28;20099;-72
2021/11/15 03:34:07;;;;;;;77.20;30.08;;;;;;;;;;5049430;28;20040;-72
2021/11/15 03:36:33;;;;;;;85.20;29.73;;;;;;;;;;5047247;28;20037;-73
2021/11/15 03:38:59;;;;;;;73.45;28.77;;;;;;;;;;5046221;28;20040;-72
2021/11/15 03:41:27;;;;;;;79.68;30.55;;;;;;;;;;5049739;28;20371;-72
2021/11/15 03:43:53;;;;;;;75.70;28.55;;;;;;;;;;5046080;28;20388;-72
2021/11/15 03:46:19;;;;;;;75.43;27.95;;;;;;;;;;5049016;28;20388;-72
2021/11/15 03:48:45;;;;;;;66.20;27.17;;;;;;;;;;5047552;28;20049;-72
2021/11/15 03:51:12;;;;;;;70.13;27.20;;;;;;;;;;5045424;28;20171;-73
2021/11/15 03:53:39;;;;;;;75.78;26.95;;;;;;;;;;5045882;28;20047;-72
2021/11/15 03:56:10;;;;;;;62.60;26.13;;;;;;;;;;5049830;28;20391;-73
2021/11/15 03:58:36;;;;;;;71.85;27.65;;;;;;;;;;5058731;28;20102;-72
2021/11/15 04:01:03;;;;;;;62.65;24.70;;;;;;;;;;5049156;28;20044;-72
2021/11/15 04:03:34;;;;;;;69.10;25.85;;;;;;;;;;5048135;28;20037;-73
2021/11/15 04:06:06;;;;;;;64.15;25.77;;;;;;;;;;5046668;28;20176;-73
2021/11/15 04:08:33;;;;;;;62.45;25.52;;;;;;;;;;5045081;28;20044;-73
2021/11/15 04:11:00;;;;;;;66.63;25.52;;;;;;;;;;5040187;28;20057;-73
2021/11/15 04:13:35;;;;;;;62.90;25.30;;;;;;;;;;5042469;28;20045;-73
2021/11/15 04:16:08;;;;;;;60.22;24.20;;;;;;;;;;5046742;28;20041;-73
2021/11/15 04:18:35;;;;;;;65.10;26.25;;;;;;;;;;5046584;28;20037;-72
2021/11/15 04:21:02;;;;;;;68.57;25.60;;;;;;;;;;5044446;28;20037;-72
2021/11/15 04:23:29;;;;;;;65.75;25.63;;;;;;;;;;5048296;28;20037;-73
2021/11/15 04:25:55;;;;;;;63.35;26.00;;;;;;;;;;5044855;28;20048;-73
2021/11/15 04:28:21;;;;;;;66.93;26.33;;;;;;;;;;5047906;28;20434;-73
2021/11/15 04:30:47;;;;;;;64.53;25.70;;;;;;;;;;5043316;28;20040;-73
2021/11/15 04:33:13;;;;;;;66.50;24.58;;;;;;;;;;5048302;28;20040;-73
2021/11/15 04:35:39;;;;;;;61.53;25.38;;;;;;;;;;5045114;28;20041;-72
2021/11/15 04:38:06;;;;;;;56.08;23.98;;;;;;;;;;5047296;28;20045;-72
2021/11/15 04:40:32;;;;;;;69.07;25.80;;;;;;;;;;5048749;28;20045;-72
2021/11/15 04:42:59;;;;;;;62.97;24.90;;;;;;;;;;5045457;28;20092;-72
2021/11/15 04:45:25;;;;;;;81.20;29.73;;;;;;;;;;5049431;28;20387;-72
2021/11/15 04:47:51;;;;;;;69.55;29.80;;;;;;;;;;5048779;28;20070;-72
2021/11/15 04:50:17;;;;;;;83.35;32.35;;;;;;;;;;5046995;28;20467;-72
2021/11/15 04:52:43;;;;;;;74.90;31.17;;;;;;;;;;5049041;28;20106;-72
2021/11/15 04:55:11;;;;;;;83.53;32.33;;;;;;;;;;5051326;28;20045;-72
2021/11/15 04:57:37;;;;;;;68.03;30.70;;;;;;;;;;5050572;28;20047;-72
2021/11/15 05:00:06;;;;;;;77.95;30.58;;;;;;;;;;5050145;28;20037;-72
2021/11/15 05:02:32;;;;;;;73.95;28.45;;;;;;;;;;5048243;28;20037;-72
2021/11/15 05:04:58;;;;;;;73.10;27.58;;;;;;;;;;5049638;28;20095;-72
2021/11/15 05:07:24;;;;;;;68.28;27.90;;;;;;;;;;5034696;28;20045;-73
2021/11/15 05:09:50;;;;;;;76.72;28.40;;;;;;;;;;5049744;28;20049;-73
2021/11/15 05:12:16;;;;;;;75.75;29.25;;;;;;;;;;5052316;28;20051;-72
2021/11/15 05:14:42;;;;;;;79.63;29.50;;;;;;;;;;5051430;28;20048;-72
2021/11/15 05:17:09;;;;;;;74.85;29.92;;;;;;;;;;5051094;28;20494;-72
2021/11/15 05:19:35;;;;;;;84.22;29.98;;;;;;;;;;5052405;28;20483;-72
2021/11/15 05:22:01;;;;;;;90.57;31.95;;;;;;;;;;5047406;28;20067;-72
2021/11/15 05:24:27;;;;;;;85.20;32.08;;;;;;;;;;5049987;28;20187;-72
2021/11/15 05:26:53;;;;;;;87.90;32.28;;;;;;;;;;5050519;28;20033;-72
2021/11/15 05:29:19;;;;;;;96.43;32.88;;;;;;;;;;5052130;28;20490;-73
2021/11/15 05:31:45;;;;;;;93.95;33.70;;;;;;;;;;5052057;28;20036;-72
2021/11/15 05:34:11;;;;;;;100.50;36.50;;;;;;;;;;5050743;28;20053;-74
2021/11/15 05:36:37;;;;;;;100.20;35.58;;;;;;;;;;5047336;28;20033;-75
2021/11/15 05:39:05;;;;;;;100.03;35.67;;;;;;;;;;5048366;28;20045;-71
2021/11/15 05:41:31;;;;;;;102.28;37.08;;;;;;;;;;5046547;28;20248;-71
2021/11/15 05:43:57;;;;;;;98.95;34.80;;;;;;;;;;5042789;28;20065;-72
2021/11/15 05:46:23;;;;;;;106.38;36.28;;;;;;;;;;5050970;28;20060;-72
2021/11/15 05:48:49;;;;;;;107.18;36.15;;;;;;;;;;5046643;28;20102;-72
2021/11/15 05:51:15;;;;;;;98.13;34.30;;;;;;;;;;5037512;28;20424;-72
2021/11/15 05:53:46;;;;;;;104.63;36.05;;;;;;;;;;5049089;28;20090;-72
2021/11/15 05:56:12;;;;;;;99.75;35.03;;;;;;;;;;5048469;28;20099;-72
2021/11/15 05:58:38;;;;;;;104.95;35.60;;;;;;;;;;5050203;28;20153;-72
2021/11/15 06:01:04;;;;;;;104.57;35.35;;;;;;;;;;5039127;28;20091;-72
2021/11/15 06:03:30;;;;;;;101.13;33.78;;;;;;;;;;5045681;28;20045;-72
2021/11/15 06:05:56;;;;;;;98.15;32.97;;;;;;;;;;5041880;28;20453;-72
2021/11/15 06:08:22;;;;;;;92.47;31.90;;;;;;;;;;5036679;28;20084;-72
2021/11/15 06:10:48;;;;;;;90.00;30.42;;;;;;;;;;5032847;28;20072;-72
2021/11/15 06:13:15;;;;;;;88.85;30.25;;;;;;;;;;5034177;28;20404;-72
2021/11/15 06:15:42;;;;;;;102.13;31.38;;;;;;;;;;5042975;28;20056;-72
2021/11/15 06:18:08;;;;;;;87.95;29.77;;;;;;;;;;5051594;28;20381;-72
2021/11/15 06:20:35;;;;;;;103.90;32.10;;;;;;;;;;5049441;28;20052;-72
2021/11/15 06:23:01;;;;;;;104.90;31.67;;;;;;;;;;5042155;28;20076;-72
2021/11/15 06:25:27;;;;;;;92.40;30.35;;;;;;;;;;5048274;28;20037;-74
2021/11/15 06:27:53;;;;;;;99.60;31.27;;;;;;;;;;5046049;28;20404;-72
2021/11/15 06:30:20;;;;;;;87.75;29.08;;;;;;;;;;5012028;28;20041;-71
2021/11/15 06:32:47;;;;;;;89.63;28.85;;;;;;;;;;5047070;28;20156;-71
2021/11/15 06:35:13;;;;;;;91.40;28.95;;;;;;;;;;5047529;28;20060;-70
2021/11/15 06:37:39;;;;;;;95.43;29.90;;;;;;;;;;5044573;28;20041;-71
2021/11/15 06:40:07;;;;;;;92.15;29.33;;;;;;;;;;5045206;28;20044;-71
2021/11/15 06:42:33;;;;;;;90.35;28.73;;;;;;;;;;5048733;28;20060;-71
2021/11/15 06:44:59;;;;;;;91.20;28.67;;;;;;;;;;5048561;28;20399;-71
2021/11/15 06:47:25;;;;;;;88.20;26.67;;;;;;;;;;5043640;28;20041;-71
2021/11/15 06:49:52;;;;;;;91.88;28.60;;;;;;;;;;5035423;28;20049;-71
2021/11/15 06:52:19;;;;;;;83.95;27.83;;;;;;;;;;5035263;28;20098;-71
2021/11/15 06:54:45;;;;;;;85.20;27.65;;;;;;;;;;5039145;28;20041;-71
2021/11/15 06:57:11;;;;;;;82.38;27.45;;;;;;;;;;5044290;28;20053;-71
2021/11/15 06:59:37;;;;;;;87.90;27.92;;;;;;;;;;5048826;28;20507;-72
2021/11/15 07:02:03;;;;;;;74.82;25.05;;;;;;;;;;5046232;28;20429;-71
2021/11/15 07:04:29;;;;;;;67.78;24.83;;;;;;;;;;5047562;28;20119;-71
2021/11/15 07:06:55;;;;;;;74.25;24.73;;;;;;;;;;5043620;28;20056;-71
2021/11/15 07:09:22;;;;;;;73.47;25.48;;;;;;;;;;5047106;28;20045;-71
2021/11/15 07:11:50;;;;;;;74.78;26.13;;;;;;;;;;5045118;28;20483;-71
2021/11/15 07:14:17;;;;;;;70.90;25.13;;;;;;;;;;5031541;28;20056;-71
2021/11/15 07:16:43;;;;;;;68.78;22.85;;;;;;;;;;5042305;28;20045;-71
2021/11/15 07:19:09;;;;;;;74.60;24.23;;;;;;;;;;5039299;28;20128;-71
2021/11/15 07:21:35;;;;;;;60.10;22.67;;;;;;;;;;5042973;28;20044;-71
2021/11/15 07:24:01;;;;;;;64.13;22.73;;;;;;;;;;5044971;28;20064;-72
2021/11/15 07:26:27;;;;;;;65.10;23.73;;;;;;;;;;5049409;28;20072;-72
2021/11/15 07:28:54;;;;;;;70.63;23.67;;;;;;;;;;5050928;28;20502;-73
2021/11/15 07:31:20;;;;;;;70.10;23.08;;;;;;;;;;5045247;28;20044;-73
2021/11/15 07:33:47;;;;;;;68.10;23.42;;;;;;;;;;5042298;28;20044;-73
2021/11/15 07:36:13;;;;;;;69.10;22.80;;;;;;;;;;5050657;28;20045;-73
2021/11/15 07:38:39;;;;;;;64.95;23.05;;;;;;;;;;5046282;28;20045;-72
2021/11/15 07:41:05;;;;;;;56.33;21.08;;;;;;;;;;5032508;28;20436;-72
2021/11/15 07:43:32;;;;;;;66.03;23.15;;;;;;;;;;5039669;28;20040;-72
2021/11/15 07:45:59;;;;;;;64.30;21.90;;;;;;;;;;5039388;28;20120;-72
2021/11/15 07:48:25;;;;;;;69.03;23.40;;;;;;;;;;5047778;28;20112;-73
2021/11/15 07:50:51;;;;;;;73.13;21.38;;;;;;;;;;5038943;28;20053;-72
2021/11/15 07:53:17;;;;;;;55.67;19.52;;;;;;;;;;5018241;28;20044;-72
2021/11/15 07:55:43;;;;;;;62.80;20.90;;;;;;;;;;5014150;28;20107;-72
2021/11/15 07:58:11;;;;;;;54.75;19.50;;;;;;;;;;5045715;28;20045;-72
2021/11/15 08:00:38;;;;;;;60.05;21.08;;;;;;;;;;5047237;28;20045;-75
2021/11/15 08:03:05;;;;;;;57.30;19.48;;;;;;;;;;5030087;28;20048;-75
2021/11/15 08:05:31;;;;;;;51.33;19.92;;;;;;;;;;5048737;28;20045;-74
2021/11/15 08:07:57;;;;;;;60.13;22.83;;;;;;;;;;5043959;28;20389;-73
2021/11/15 08:10:23;;;;;;;60.45;20.73;;;;;;;;;;5046619;28;20143;-73
2021/11/15 08:12:53;;;;;;;64.78;20.55;;;;;;;;;;5047405;28;20045;-73
2021/11/15 08:15:20;;;;;;;65.15;21.80;;;;;;;;;;5048112;28;20045;-73
2021/11/15 08:17:47;;;;;;;62.33;21.17;;;;;;;;;;5047157;28;20103;-73
2021/11/15 08:20:20;;;;;;;64.32;22.35;;;;;;;;;;5044433;28;20041;-73
2021/11/15 08:22:47;;;;;;;63.08;20.83;;;;;;;;;;5044456;28;20118;-73
2021/11/15 08:25:34;;;;;;;68.45;20.98;;;;;;;;;;5046410;28;20403;-73
2021/11/15 08:28:00;;;;;;;60.13;21.40;;;;;;;;;;5046532;28;20099;-73
2021/11/15 08:30:27;;;;;;;60.05;21.45;;;;;;;;;;5046041;28;20045;-73
2021/11/15 08:32:53;;;;;;;59.05;19.90;;;;;;;;;;5047587;28;20055;-73
2021/11/15 08:35:21;;;;;;;67.05;21.63;;;;;;;;;;5049555;28;20519;-73
2021/11/15 08:37:59;;;;;;;61.80;20.15;;;;;;;;;;5049928;28;20045;-73
2021/11/15 08:40:26;;;;;;;62.08;21.50;;;;;;;;;;5049911;28;20392;-73
2021/11/15 08:42:53;;;;;;;59.17;20.27;;;;;;;;;;5052534;28;20041;-73
2021/11/15 08:45:20;;;;;;;60.92;20.80;;;;;;;;;;5050249;28;20040;-73
2021/11/15 08:47:46;;;;;;;62.00;21.05;;;;;;;;;;5052034;28;20049;-73
2021/11/15 08:50:12;;;;;;;62.20;20.80;;;;;;;;;;5053056;28;20446;-73
2021/11/15 08:52:38;;;;;;;58.65;19.88;;;;;;;;;;5050747;28;20051;-73
2021/11/15 08:55:05;;;;;;;66.80;20.88;;;;;;;;;;5050212;28;20488;-73
2021/11/15 08:57:31;;;;;;;55.58;19.70;;;;;;;;;;5049508;28;20124;-73
2021/11/15 08:59:58;;;;;;;55.70;20.10;;;;;;;;;;5049085;28;20076;-73
2021/11/15 09:02:24;;;;;;;62.80;19.92;;;;;;;;;;5052602;28;20059;-73
2021/11/15 09:04:51;;;;;;;53.33;17.77;;;;;;;;;;5049697;28;20903;-73
2021/11/15 09:07:17;;;;;;;52.55;18.15;;;;;;;;;;5051468;28;20531;-73
2021/11/15 09:09:43;;;;;;;48.72;17.10;;;;;;;;;;5050379;28;20072;-73
2021/11/15 09:12:09;;;;;;;43.90;15.48;;;;;;;;;;5034789;28;20051;-73
2021/11/15 09:14:39;;;;;;;39.53;14.18;;;;;;;;;;5048464;28;20057;-73
2021/11/15 09:17:05;;;;;;;41.00;14.27;;;;;;;;;;5040169;28;20088;-73
2021/11/15 09:19:31;;;;;;;43.08;14.25;;;;;;;;;;5051073;28;20040;-73
2021/11/15 09:21:58;;;;;;;41.63;14.35;;;;;;;;;;5048080;28;20480;-73
2021/11/15 09:24:24;;;;;;;44.08;16.40;;;;;;;;;;5050946;28;20051;-73
2021/11/15 09:26:50;;;;;;;47.20;15.85;;;;;;;;;;5045103;28;20163;-73
2021/11/15 09:29:18;;;;;;;62.65;25.60;;;;;;;;;;5048925;28;20071;-76
2021/11/15 09:31:45;;;;;;;53.30;23.27;;;;;;;;;;5046817;28;20159;-72
2021/11/15 09:34:11;;;;;;;47.03;16.95;;;;;;;;;;5050425;28;20095;-73
2021/11/15 09:36:38;;;;;;;48.28;18.25;;;;;;;;;;5053646;28;20040;-73
2021/11/15 09:39:05;;;;;;;53.00;17.58;;;;;;;;;;5045544;28;20041;-73
2021/11/15 09:41:31;;;;;;;49.63;16.90;;;;;;;;;;5051278;28;20131;-71
2021/11/15 09:43:57;;;;;;;45.35;16.45;;;;;;;;;;5054071;28;20052;-73
2021/11/15 09:46:25;;;;;;;42.35;16.77;;;;;;;;;;5048348;28;20059;-73
2021/11/15 09:48:59;;;;;;;46.70;16.38;;;;;;;;;;5043611;28;20049;-73
2021/11/15 09:51:25;;;;;;;42.30;15.65;;;;;;;;;;5048815;28;20048;-74
2021/11/15 09:53:51;;;;;;;52.88;15.98;;;;;;;;;;5033808;28;20052;-74
2021/11/15 09:56:19;;;;;;;45.40;16.25;;;;;;;;;;5059971;28;20111;-74
2021/11/15 09:58:45;;;;;;;42.05;15.20;;;;;;;;;;5050807;28;20076;-73
2021/11/15 10:01:11;;;;;;;42.15;15.50;;;;;;;;;;5047865;28;20538;-73
2021/11/15 10:03:37;;;;;;;36.53;14.27;;;;;;;;;;5047767;28;20047;-74
2021/11/15 10:06:04;;;;;;;41.10;13.65;;;;;;;;;;5047478;28;20426;-73
2021/11/15 10:08:43;;;;;;;32.20;12.80;;;;;;;;;;5049966;28;20049;-73
2021/11/15 10:11:10;;;;;;;34.58;13.75;;;;;;;;;;5046107;28;20507;-73
2021/11/15 10:13:36;;;;;;;38.88;14.25;;;;;;;;;;5048991;28;20084;-73
2021/11/15 10:16:04;;;;;;;39.83;13.90;;;;;;;;;;5048966;28;20059;-73
2021/11/15 10:18:34;;;;;;;32.60;13.60;;;;;;;;;;5031126;28;20266;-73
2021/11/15 10:21:01;;;;;;;39.08;12.52;;;;;;;;;;5043913;28;20132;-73
2021/11/15 10:23:27;;;;;;;33.65;12.65;;;;;;;;;;5037241;28;20492;-73
2021/11/15 10:25:58;;;;;;;30.70;12.35;;;;;;;;;;5047768;28;20494;-72
2021/11/15 10:28:24;;;;;;;33.00;13.52;;;;;;;;;;5049202;28;20056;-72
2021/11/15 10:30:50;;;;;;;30.13;11.70;;;;;;;;;;5046397;28;20049;-72
2021/11/15 10:33:18;;;;;;;31.30;11.98;;;;;;;;;;5049064;28;20048;-72
2021/11/15 10:35:47;;;;;;;26.55;12.15;;;;;;;;;;5052366;28;20052;-71
2021/11/15 10:38:14;;;;;;;28.85;11.88;;;;;;;;;;5055433;28;20417;-72
2021/11/15 10:40:40;;;;;;;24.30;10.82;;;;;;;;;;5058041;28;20760;-73
2021/11/15 10:43:08;;;;;;;25.88;11.43;;;;;;;;;;5048036;28;20330;-72
2021/11/15 10:45:35;;;;;;;24.38;11.27;;;;;;;;;;5052605;28;20048;-75
2021/11/15 10:48:02;;;;;;;25.40;10.80;;;;;;;;;;5035200;28;20059;-74
2021/11/15 10:50:45;;;;;;;29.70;11.43;;;;;;;;;;5048778;28;20561;-73
2021/11/15 10:53:17;;;;;;;30.20;12.25;;;;;;;;;;5048023;28;20505;-73
2021/11/15 10:56:02;;;;;;;24.02;10.95;;;;;;;;;;5049501;28;20048;-74
2021/11/15 10:58:28;;;;;;;26.75;11.32;;;;;;;;;;5052749;28;20040;-73
2021/11/15 11:00:57;;;;;;;28.77;11.05;;;;;;;;;;5048721;28;20045;-72
2021/11/15 11:03:26;;;;;;;24.02;10.93;;;;;;;;;;5049079;28;20416;-73
2021/11/15 11:05:53;;;;;;;27.55;11.27;;;;;;;;;;5053770;28;20045;-73
2021/11/15 11:08:21;;;;;;;27.23;11.60;;;;;;;;;;5048082;28;20280;-72
2021/11/15 11:11:09;;;;;;;25.05;9.55;;;;;;;;;;5053374;28;20065;-70
2021/11/15 11:13:49;;;;;;;21.52;10.00;;;;;;;;;;5098810;27;20518;-72
2021/11/15 11:16:17;;;;;;;22.42;10.23;;;;;;;;;;5116413;28;20044;-75
2021/11/15 11:18:52;;;;;;;28.85;11.35;;;;;;;;;;5088001;28;20055;-73
2021/11/15 11:26:33;;;;;;;27.67;11.80;;;;;;;;;;5079095;28;20041;-76
2021/11/15 11:29:01;;;;;;;30.58;12.18;;;;;;;;;;5082229;28;20048;-73
2021/11/15 11:31:29;;;;;;;26.85;11.80;;;;;;;;;;5068390;28;20049;-74
2021/11/15 11:33:55;;;;;;;41.83;13.63;;;;;;;;;;5064112;28;20067;-73
2021/11/15 11:36:22;;;;;;;36.13;13.48;;;;;;;;;;5098722;28;20048;-76
2021/11/15 11:38:48;;;;;;;34.05;13.35;;;;;;;;;;5067099;28;20071;-72
2021/11/15 11:41:14;;;;;;;30.73;12.02;;;;;;;;;;5067954;28;20097;-74
2021/11/15 11:43:41;;;;;;;33.50;13.85;;;;;;;;;;5084975;28;20467;-75
2021/11/15 11:46:08;;;;;;;37.45;14.38;;;;;;;;;;5077361;28;20071;-74
2021/11/15 11:48:34;;;;;;;36.08;14.80;;;;;;;;;;5091415;28;20435;-74
2021/11/15 11:51:01;;;;;;;34.08;12.68;;;;;;;;;;5099646;28;20052;-75
2021/11/15 11:53:29;;;;;;;34.30;14.20;;;;;;;;;;5081072;28;20090;-74
2021/11/15 11:55:56;;;;;;;34.95;14.35;;;;;;;;;;5083870;28;20040;-74
2021/11/15 11:58:28;;;;;;;35.42;14.38;;;;;;;;;;5065377;28;20053;-80
2021/11/15 12:00:56;;;;;;;36.17;14.52;;;;;;;;;;5084025;28;20485;-75
2021/11/15 12:03:23;;;;;;;37.05;14.95;;;;;;;;;;5068726;28;20054;-75
2021/11/15 12:05:50;;;;;;;34.40;15.07;;;;;;;;;;5082329;28;20097;-75
2021/11/15 12:08:16;;;;;;;51.63;18.75;;;;;;;;;;5071378;28;20062;-76
2021/11/15 12:10:46;;;;;;;50.65;19.15;;;;;;;;;;5074942;28;20071;-74
2021/11/15 12:13:13;;;;;;;47.58;19.40;;;;;;;;;;5079936;28;20450;-75
2021/11/15 12:15:45;;;;;;;66.70;26.48;;;;;;;;;;5097866;28;20097;-75
2021/11/15 12:18:32;;;;;;;80.68;31.77;;;;;;;;;;5097112;28;20066;-75
2021/11/15 12:21:05;;;;;;;79.20;30.75;;;;;;;;;;5081533;28;20590;-75
2021/11/15 12:23:37;;;;;;;78.78;30.10;;;;;;;;;;5095323;28;20131;-75
2021/11/15 12:26:06;;;;;;;86.80;32.60;;;;;;;;;;5083564;28;20051;-75
2021/11/15 12:28:33;;;;;;;84.95;32.67;;;;;;;;;;5071006;28;20106;-75
2021/11/15 12:30:59;;;;;;;81.43;32.05;;;;;;;;;;5084633;28;20479;-75
2021/11/15 12:33:29;;;;;;;94.90;35.58;;;;;;;;;;5050965;28;20033;-74
2021/11/15 12:36:08;;;;;;;85.45;33.85;;;;;;;;;;5066357;28;20052;-73
2021/11/15 12:38:45;;;;;;;87.80;33.28;;;;;;;;;;5060869;28;20056;-75
2021/11/15 12:41:14;;;;;;;80.93;32.10;;;;;;;;;;5068511;28;20433;-73
2021/11/15 12:43:41;;;;;;;91.45;35.75;;;;;;;;;;5070622;28;20179;-73
2021/11/15 12:46:16;;;;;;;89.57;36.75;;;;;;;;;;5081214;28;20120;-75
2021/11/15 12:48:43;;;;;;;100.57;37.35;;;;;;;;;;5063999;28;20048;-73
2021/11/15 12:51:14;;;;;;;100.47;36.35;;;;;;;;;;5066659;28;20044;-73
2021/11/15 12:53:41;;;;;;;91.93;37.38;;;;;;;;;;5063362;28;20045;-73
2021/11/15 12:56:07;;;;;;;92.93;36.55;;;;;;;;;;5052244;28;20044;-73
2021/11/15 12:58:33;;;;;;;99.22;38.42;;;;;;;;;;5065173;28;20040;-74
2021/11/15 13:00:59;;;;;;;92.60;38.05;;;;;;;;;;5068514;28;20135;-75
2021/11/15 13:03:25;;;;;;;96.45;38.85;;;;;;;;;;5085195;28;20044;-75
2021/11/15 13:05:52;;;;;;;100.43;37.78;;;;;;;;;;5081467;28;20056;-69
2021/11/15 13:08:18;;;;;;;96.30;37.47;;;;;;;;;;5060313;28;20048;-74
2021/11/15 13:10:47;;;;;;;95.25;38.72;;;;;;;;;;5064616;28;20049;-72
2021/11/15 13:13:15;;;;;;;105.53;40.25;;;;;;;;;;5065973;28;20063;-72
2021/11/15 13:15:41;;;;;;;94.90;38.28;;;;;;;;;;5068783;28;20499;-72
2021/11/15 13:18:07;;;;;;;109.57;41.58;;;;;;;;;;5082587;28;20139;-71
2021/11/15 13:20:33;;;;;;;106.43;40.55;;;;;;;;;;5068378;28;20394;-72
2021/11/15 13:22:59;;;;;;;97.18;37.13;;;;;;;;;;5097864;28;20044;-72
2021/11/15 13:25:28;;;;;;;95.40;37.72;;;;;;;;;;5099540;28;20094;-71
2021/11/15 13:27:54;;;;;;;92.75;37.78;;;;;;;;;;5100035;28;20048;-71
2021/11/15 13:30:21;;;;;;;89.30;36.60;;;;;;;;;;5061917;28;20044;-75
2021/11/15 13:32:58;;;;;;;85.80;33.70;;;;;;;;;;5051810;28;20072;-75
2021/11/15 13:35:25;;;;;;;89.45;33.92;;;;;;;;;;5061051;28;20488;-74
2021/11/15 13:37:59;;;;;;;93.47;35.58;;;;;;;;;;5082705;28;20071;-75
2021/11/15 13:40:25;;;;;;;96.63;37.20;;;;;;;;;;5062429;28;20056;-75
2021/11/15 13:42:51;;;;;;;95.38;35.17;;;;;;;;;;5064427;28;20091;-73
2021/11/15 13:45:17;;;;;;;98.68;37.20;;;;;;;;;;5054786;28;20033;-73
2021/11/15 13:47:45;;;;;;;88.82;36.00;;;;;;;;;;5093466;28;20123;-73
2021/11/15 13:50:11;;;;;;;90.20;34.25;;;;;;;;;;5061407;28;20044;-72
2021/11/15 13:52:37;;;;;;;91.57;34.53;;;;;;;;;;5059500;28;20468;-73
2021/11/15 13:55:03;;;;;;;86.60;36.17;;;;;;;;;;5090666;28;20048;-72
2021/11/15 13:57:30;;;;;;;88.53;35.08;;;;;;;;;;5076500;28;20090;-73
2021/11/15 13:59:56;;;;;;;93.75;35.33;;;;;;;;;;5068264;28;20044;-73
2021/11/15 14:02:22;;;;;;;92.18;34.75;;;;;;;;;;5067070;28;20442;-72
2021/11/15 14:04:49;;;;;;;91.93;34.38;;;;;;;;;;5065015;28;20037;-72
2021/11/15 14:07:21;;;;;;;92.57;34.95;;;;;;;;;;5066198;28;20049;-71
2021/11/15 14:09:48;;;;;;;89.25;36.28;;;;;;;;;;5067431;28;20506;-72
2021/11/15 14:12:14;;;;;;;85.82;33.13;;;;;;;;;;5067430;28;20052;-72
2021/11/15 14:14:40;;;;;;;92.32;35.20;;;;;;;;;;5064872;28;20067;-71
2021/11/15 14:17:07;;;;;;;94.15;34.63;;;;;;;;;;5062455;28;20170;-70
2021/11/15 14:19:33;;;;;;;98.80;37.03;;;;;;;;;;5065508;28;20531;-70
2021/11/15 14:21:59;;;;;;;93.35;36.00;;;;;;;;;;5052177;28;20048;-73